sensor_id;sensor_type;location;lat;lon;timestamp;P1;durP1;ratioP1;P2;durP2;ratioP2
74448;SDS011;62878;51.026;4.472;2022-12-13T00:01:57;11.90;;;7.35;;
74448;SDS011;62878;51.026;4.472;2022-12-13T00:04:22;12.85;;;7.40;;
74448;SDS011;62878;51.026;4.472;2022-12-13T00:06:49;11.40;;;6.82;;
74448;SDS011;62878;51.026;4.472;2022-12-13T00:09:16;15.07;;;8.38;;
74448;SDS011;62878;51.026;4.472;2022-12-13T00:11:42;13.88;;;8.73;;
74448;SDS011;62878;51.026;4.472;2022-12-13T00:14:08;13.25;;;8.23;;
74448;SDS011;62878;51.026;4.472;2022-12-13T00:16:35;14.45;;;8.55;;
74448;SDS011;62878;51.026;4.472;2022-12-13T00:19:00;13.27;;;8.30;;
74448;SDS011;62878;51.026;4.472;2022-12-13T00:21:29;14.02;;;8.35;;
74448;SDS011;62878;51.026;4.472;2022-12-13T00:23:56;14.88;;;8.45;;
74448;SDS011;62878;51.026;4.472;2022-12-13T00:26:27;14.60;;;8.88;;
74448;SDS011;62878;51.026;4.472;2022-12-13T00:28:54;15.82;;;8.25;;
74448;SDS011;62878;51.026;4.472;2022-12-13T00:31:21;11.55;;;7.50;;
74448;SDS011;62878;51.026;4.472;2022-12-13T00:33:47;15.30;;;8.13;;
74448;SDS011;62878;51.026;4.472;2022-12-13T00:36:13;13.82;;;7.78;;
74448;SDS011;62878;51.026;4.472;2022-12-13T00:38:39;13.48;;;8.80;;
74448;SDS011;62878;51.026;4.472;2022-12-13T00:41:14;12.52;;;8.85;;
74448;SDS011;62878;51.026;4.472;2022-12-13T00:43:41;16.20;;;9.68;;
74448;SDS011;62878;51.026;4.472;2022-12-13T00:46:14;13.15;;;7.75;;
74448;SDS011;62878;51.026;4.472;2022-12-13T00:48:41;12.65;;;8.13;;
74448;SDS011;62878;51.026;4.472;2022-12-13T00:51:09;13.85;;;8.70;;
74448;SDS011;62878;51.026;4.472;2022-12-13T00:53:35;16.52;;;8.88;;
74448;SDS011;62878;51.026;4.472;2022-12-13T00:56:01;14.57;;;8.40;;
74448;SDS011;62878;51.026;4.472;2022-12-13T00:58:27;12.70;;;8.52;;
74448;SDS011;62878;51.026;4.472;2022-12-13T01:00:52;13.20;;;8.38;;
74448;SDS011;62878;51.026;4.472;2022-12-13T01:03:25;11.95;;;7.95;;
74448;SDS011;62878;51.026;4.472;2022-12-13T01:05:51;16.30;;;9.18;;
74448;SDS011;62878;51.026;4.472;2022-12-13T01:08:16;13.80;;;8.15;;
74448;SDS011;62878;51.026;4.472;2022-12-13T01:10:42;12.68;;;8.07;;
74448;SDS011;62878;51.026;4.472;2022-12-13T01:13:10;10.77;;;7.72;;
74448;SDS011;62878;51.026;4.472;2022-12-13T01:15:40;13.35;;;8.90;;
74448;SDS011;62878;51.026;4.472;2022-12-13T01:18:09;13.95;;;8.93;;
74448;SDS011;62878;51.026;4.472;2022-12-13T01:20:35;12.80;;;8.43;;
74448;SDS011;62878;51.026;4.472;2022-12-13T01:23:01;13.77;;;8.50;;
74448;SDS011;62878;51.026;4.472;2022-12-13T01:25:27;13.93;;;8.82;;
74448;SDS011;62878;51.026;4.472;2022-12-13T01:27:52;15.95;;;9.32;;
74448;SDS011;62878;51.026;4.472;2022-12-13T01:30:18;13.75;;;8.55;;
74448;SDS011;62878;51.026;4.472;2022-12-13T01:32:43;13.68;;;8.57;;
74448;SDS011;62878;51.026;4.472;2022-12-13T01:35:09;13.82;;;8.68;;
74448;SDS011;62878;51.026;4.472;2022-12-13T01:37:34;13.55;;;8.75;;
74448;SDS011;62878;51.026;4.472;2022-12-13T01:40:02;12.70;;;8.63;;
74448;SDS011;62878;51.026;4.472;2022-12-13T01:42:28;13.35;;;8.13;;
74448;SDS011;62878;51.026;4.472;2022-12-13T01:45:02;13.00;;;8.70;;
74448;SDS011;62878;51.026;4.472;2022-12-13T01:47:45;17.65;;;9.00;;
74448;SDS011;62878;51.026;4.472;2022-12-13T01:50:26;14.98;;;7.78;;
74448;SDS011;62878;51.026;4.472;2022-12-13T01:52:54;14.27;;;8.48;;
74448;SDS011;62878;51.026;4.472;2022-12-13T01:55:20;12.15;;;7.50;;
74448;SDS011;62878;51.026;4.472;2022-12-13T01:57:49;13.13;;;7.82;;
74448;SDS011;62878;51.026;4.472;2022-12-13T02:00:16;13.98;;;8.85;;
74448;SDS011;62878;51.026;4.472;2022-12-13T02:02:41;10.20;;;7.63;;
74448;SDS011;62878;51.026;4.472;2022-12-13T02:05:20;11.98;;;7.55;;
74448;SDS011;62878;51.026;4.472;2022-12-13T02:07:51;12.40;;;8.18;;
74448;SDS011;62878;51.026;4.472;2022-12-13T02:10:17;10.77;;;7.38;;
74448;SDS011;62878;51.026;4.472;2022-12-13T02:12:43;13.35;;;7.22;;
74448;SDS011;62878;51.026;4.472;2022-12-13T02:15:12;13.05;;;8.25;;
74448;SDS011;62878;51.026;4.472;2022-12-13T02:20:42;16.00;;;8.77;;
74448;SDS011;62878;51.026;4.472;2022-12-13T02:37:42;14.15;;;7.93;;
74448;SDS011;62878;51.026;4.472;2022-12-13T02:40:33;12.85;;;8.38;;
74448;SDS011;62878;51.026;4.472;2022-12-13T02:43:05;18.25;;;8.05;;
74448;SDS011;62878;51.026;4.472;2022-12-13T02:45:44;12.38;;;8.02;;
74448;SDS011;62878;51.026;4.472;2022-12-13T02:48:12;14.05;;;7.50;;
74448;SDS011;62878;51.026;4.472;2022-12-13T02:50:41;13.55;;;7.97;;
74448;SDS011;62878;51.026;4.472;2022-12-13T02:53:07;12.55;;;8.52;;
74448;SDS011;62878;51.026;4.472;2022-12-13T02:55:36;13.05;;;7.75;;
74448;SDS011;62878;51.026;4.472;2022-12-13T02:58:02;14.95;;;8.90;;
74448;SDS011;62878;51.026;4.472;2022-12-13T03:03:35;13.27;;;8.02;;
74448;SDS011;62878;51.026;4.472;2022-12-13T03:11:31;12.10;;;7.93;;
74448;SDS011;62878;51.026;4.472;2022-12-13T03:14:40;10.43;;;6.93;;
74448;SDS011;62878;51.026;4.472;2022-12-13T03:17:18;9.77;;;6.68;;
74448;SDS011;62878;51.026;4.472;2022-12-13T03:19:44;13.15;;;7.85;;
74448;SDS011;62878;51.026;4.472;2022-12-13T03:22:09;15.07;;;6.97;;
74448;SDS011;62878;51.026;4.472;2022-12-13T03:24:35;10.05;;;7.20;;
74448;SDS011;62878;51.026;4.472;2022-12-13T03:27:00;11.90;;;6.68;;
74448;SDS011;62878;51.026;4.472;2022-12-13T03:29:26;11.48;;;7.85;;
74448;SDS011;62878;51.026;4.472;2022-12-13T03:31:52;11.43;;;6.88;;
74448;SDS011;62878;51.026;4.472;2022-12-13T03:34:18;12.73;;;7.85;;
74448;SDS011;62878;51.026;4.472;2022-12-13T03:36:43;11.63;;;6.72;;
74448;SDS011;62878;51.026;4.472;2022-12-13T03:39:09;13.93;;;7.82;;
74448;SDS011;62878;51.026;4.472;2022-12-13T03:41:34;12.45;;;6.90;;
74448;SDS011;62878;51.026;4.472;2022-12-13T03:44:03;12.32;;;6.93;;
74448;SDS011;62878;51.026;4.472;2022-12-13T03:46:31;12.48;;;6.78;;
74448;SDS011;62878;51.026;4.472;2022-12-13T03:48:56;11.52;;;6.32;;
74448;SDS011;62878;51.026;4.472;2022-12-13T03:51:21;11.30;;;6.68;;
74448;SDS011;62878;51.026;4.472;2022-12-13T03:53:47;12.63;;;7.50;;
74448;SDS011;62878;51.026;4.472;2022-12-13T03:56:12;9.88;;;6.97;;
74448;SDS011;62878;51.026;4.472;2022-12-13T03:58:37;10.75;;;6.40;;
74448;SDS011;62878;51.026;4.472;2022-12-13T04:01:06;8.75;;;6.43;;
74448;SDS011;62878;51.026;4.472;2022-12-13T04:03:34;9.48;;;6.88;;
74448;SDS011;62878;51.026;4.472;2022-12-13T04:06:00;11.95;;;7.50;;
74448;SDS011;62878;51.026;4.472;2022-12-13T04:08:25;12.88;;;6.65;;
74448;SDS011;62878;51.026;4.472;2022-12-13T04:10:50;11.15;;;6.78;;
74448;SDS011;62878;51.026;4.472;2022-12-13T04:13:16;12.05;;;6.88;;
74448;SDS011;62878;51.026;4.472;2022-12-13T04:15:56;12.02;;;6.95;;
74448;SDS011;62878;51.026;4.472;2022-12-13T04:18:22;9.13;;;6.25;;
74448;SDS011;62878;51.026;4.472;2022-12-13T04:20:47;12.35;;;6.82;;
74448;SDS011;62878;51.026;4.472;2022-12-13T04:23:13;13.27;;;6.68;;
74448;SDS011;62878;51.026;4.472;2022-12-13T04:25:39;11.82;;;6.22;;
74448;SDS011;62878;51.026;4.472;2022-12-13T04:28:05;10.57;;;6.47;;
74448;SDS011;62878;51.026;4.472;2022-12-13T04:30:31;13.95;;;6.63;;
74448;SDS011;62878;51.026;4.472;2022-12-13T04:32:57;12.50;;;6.57;;
74448;SDS011;62878;51.026;4.472;2022-12-13T04:35:23;10.95;;;6.43;;
74448;SDS011;62878;51.026;4.472;2022-12-13T04:37:48;12.32;;;6.32;;
74448;SDS011;62878;51.026;4.472;2022-12-13T04:40:13;14.40;;;5.75;;
74448;SDS011;62878;51.026;4.472;2022-12-13T04:42:39;10.80;;;5.90;;
74448;SDS011;62878;51.026;4.472;2022-12-13T04:45:04;10.88;;;6.03;;
74448;SDS011;62878;51.026;4.472;2022-12-13T04:47:30;10.18;;;5.97;;
74448;SDS011;62878;51.026;4.472;2022-12-13T04:49:56;9.05;;;5.85;;
74448;SDS011;62878;51.026;4.472;2022-12-13T04:52:21;10.82;;;5.93;;
74448;SDS011;62878;51.026;4.472;2022-12-13T04:54:47;9.80;;;5.63;;
74448;SDS011;62878;51.026;4.472;2022-12-13T04:57:12;10.38;;;5.97;;
74448;SDS011;62878;51.026;4.472;2022-12-13T04:59:37;10.60;;;5.45;;
74448;SDS011;62878;51.026;4.472;2022-12-13T05:02:04;10.38;;;6.18;;
74448;SDS011;62878;51.026;4.472;2022-12-13T05:04:30;11.85;;;5.95;;
74448;SDS011;62878;51.026;4.472;2022-12-13T05:06:55;9.00;;;5.80;;
74448;SDS011;62878;51.026;4.472;2022-12-13T05:09:21;10.68;;;5.68;;
74448;SDS011;62878;51.026;4.472;2022-12-13T05:11:47;9.98;;;5.90;;
74448;SDS011;62878;51.026;4.472;2022-12-13T05:14:12;10.85;;;6.20;;
74448;SDS011;62878;51.026;4.472;2022-12-13T05:16:38;8.82;;;5.43;;
74448;SDS011;62878;51.026;4.472;2022-12-13T05:19:03;10.07;;;6.00;;
74448;SDS011;62878;51.026;4.472;2022-12-13T05:21:28;8.35;;;5.38;;
74448;SDS011;62878;51.026;4.472;2022-12-13T05:23:54;8.55;;;5.40;;
74448;SDS011;62878;51.026;4.472;2022-12-13T05:26:19;9.00;;;5.60;;
74448;SDS011;62878;51.026;4.472;2022-12-13T05:28:44;8.77;;;5.45;;
74448;SDS011;62878;51.026;4.472;2022-12-13T05:31:10;11.25;;;5.97;;
74448;SDS011;62878;51.026;4.472;2022-12-13T05:33:36;11.57;;;5.30;;
74448;SDS011;62878;51.026;4.472;2022-12-13T05:36:02;8.63;;;5.28;;
74448;SDS011;62878;51.026;4.472;2022-12-13T05:38:29;9.50;;;5.32;;
74448;SDS011;62878;51.026;4.472;2022-12-13T05:40:55;9.23;;;5.32;;
74448;SDS011;62878;51.026;4.472;2022-12-13T05:43:20;9.60;;;5.28;;
74448;SDS011;62878;51.026;4.472;2022-12-13T05:45:47;8.77;;;5.03;;
74448;SDS011;62878;51.026;4.472;2022-12-13T05:48:13;8.32;;;5.13;;
74448;SDS011;62878;51.026;4.472;2022-12-13T05:50:39;9.82;;;5.22;;
74448;SDS011;62878;51.026;4.472;2022-12-13T05:53:05;7.78;;;4.53;;
74448;SDS011;62878;51.026;4.472;2022-12-13T05:55:30;8.25;;;5.05;;
74448;SDS011;62878;51.026;4.472;2022-12-13T05:57:56;8.00;;;5.10;;
74448;SDS011;62878;51.026;4.472;2022-12-13T06:00:22;11.73;;;4.95;;
74448;SDS011;62878;51.026;4.472;2022-12-13T06:02:47;9.65;;;5.25;;
74448;SDS011;62878;51.026;4.472;2022-12-13T06:05:13;8.68;;;4.93;;
74448;SDS011;62878;51.026;4.472;2022-12-13T06:07:38;9.52;;;5.18;;
74448;SDS011;62878;51.026;4.472;2022-12-13T06:10:04;12.10;;;4.85;;
74448;SDS011;62878;51.026;4.472;2022-12-13T06:12:33;10.27;;;4.90;;
74448;SDS011;62878;51.026;4.472;2022-12-13T06:14:59;7.75;;;4.80;;
74448;SDS011;62878;51.026;4.472;2022-12-13T06:17:24;6.30;;;4.50;;
74448;SDS011;62878;51.026;4.472;2022-12-13T06:19:50;7.38;;;4.57;;
74448;SDS011;62878;51.026;4.472;2022-12-13T06:22:15;6.35;;;4.15;;
74448;SDS011;62878;51.026;4.472;2022-12-13T06:24:41;9.40;;;4.55;;
74448;SDS011;62878;51.026;4.472;2022-12-13T06:27:06;8.05;;;4.50;;
74448;SDS011;62878;51.026;4.472;2022-12-13T06:29:32;7.25;;;4.68;;
74448;SDS011;62878;51.026;4.472;2022-12-13T06:31:58;9.63;;;5.43;;
74448;SDS011;62878;51.026;4.472;2022-12-13T06:34:25;8.48;;;4.60;;
74448;SDS011;62878;51.026;4.472;2022-12-13T06:36:51;8.25;;;4.57;;
74448;SDS011;62878;51.026;4.472;2022-12-13T06:39:17;9.45;;;4.85;;
74448;SDS011;62878;51.026;4.472;2022-12-13T06:41:42;8.10;;;4.47;;
74448;SDS011;62878;51.026;4.472;2022-12-13T06:44:08;6.28;;;4.70;;
74448;SDS011;62878;51.026;4.472;2022-12-13T06:46:33;8.98;;;4.75;;
74448;SDS011;62878;51.026;4.472;2022-12-13T06:48:59;7.88;;;4.70;;
74448;SDS011;62878;51.026;4.472;2022-12-13T06:51:25;6.78;;;4.50;;
74448;SDS011;62878;51.026;4.472;2022-12-13T06:53:51;7.38;;;4.38;;
74448;SDS011;62878;51.026;4.472;2022-12-13T06:56:16;7.03;;;4.20;;
74448;SDS011;62878;51.026;4.472;2022-12-13T06:58:41;8.00;;;4.13;;
74448;SDS011;62878;51.026;4.472;2022-12-13T07:01:11;8.90;;;4.32;;
74448;SDS011;62878;51.026;4.472;2022-12-13T07:03:41;9.43;;;5.40;;
74448;SDS011;62878;51.026;4.472;2022-12-13T07:06:08;8.50;;;4.47;;
74448;SDS011;62878;51.026;4.472;2022-12-13T07:08:37;6.88;;;3.70;;
74448;SDS011;62878;51.026;4.472;2022-12-13T07:11:02;7.05;;;4.28;;
74448;SDS011;62878;51.026;4.472;2022-12-13T07:13:28;8.70;;;4.78;;
74448;SDS011;62878;51.026;4.472;2022-12-13T07:15:55;8.30;;;4.85;;
74448;SDS011;62878;51.026;4.472;2022-12-13T07:18:20;6.80;;;4.18;;
74448;SDS011;62878;51.026;4.472;2022-12-13T07:20:45;7.97;;;4.43;;
74448;SDS011;62878;51.026;4.472;2022-12-13T07:23:12;8.52;;;4.38;;
74448;SDS011;62878;51.026;4.472;2022-12-13T07:25:38;6.95;;;4.78;;
74448;SDS011;62878;51.026;4.472;2022-12-13T07:28:04;8.70;;;4.13;;
74448;SDS011;62878;51.026;4.472;2022-12-13T07:30:32;8.63;;;4.50;;
74448;SDS011;62878;51.026;4.472;2022-12-13T07:33:00;8.88;;;4.45;;
74448;SDS011;62878;51.026;4.472;2022-12-13T07:35:26;9.27;;;4.57;;
74448;SDS011;62878;51.026;4.472;2022-12-13T07:37:52;6.10;;;3.88;;
74448;SDS011;62878;51.026;4.472;2022-12-13T07:40:17;6.80;;;4.15;;
74448;SDS011;62878;51.026;4.472;2022-12-13T07:42:49;6.70;;;3.78;;
74448;SDS011;62878;51.026;4.472;2022-12-13T07:45:15;9.93;;;4.32;;
74448;SDS011;62878;51.026;4.472;2022-12-13T07:47:41;8.65;;;4.50;;
74448;SDS011;62878;51.026;4.472;2022-12-13T07:50:06;5.57;;;3.95;;
74448;SDS011;62878;51.026;4.472;2022-12-13T07:52:32;6.93;;;3.85;;
74448;SDS011;62878;51.026;4.472;2022-12-13T07:54:57;6.93;;;4.05;;
74448;SDS011;62878;51.026;4.472;2022-12-13T07:57:22;5.97;;;3.42;;
74448;SDS011;62878;51.026;4.472;2022-12-13T07:59:48;7.60;;;4.13;;
74448;SDS011;62878;51.026;4.472;2022-12-13T08:02:13;7.78;;;4.35;;
74448;SDS011;62878;51.026;4.472;2022-12-13T08:04:38;6.90;;;4.22;;
74448;SDS011;62878;51.026;4.472;2022-12-13T08:07:07;8.52;;;4.45;;
74448;SDS011;62878;51.026;4.472;2022-12-13T08:09:33;8.90;;;4.60;;
74448;SDS011;62878;51.026;4.472;2022-12-13T08:11:59;7.40;;;4.20;;
74448;SDS011;62878;51.026;4.472;2022-12-13T08:14:24;7.40;;;4.53;;
74448;SDS011;62878;51.026;4.472;2022-12-13T08:16:50;6.65;;;3.58;;
74448;SDS011;62878;51.026;4.472;2022-12-13T08:19:15;6.20;;;3.60;;
74448;SDS011;62878;51.026;4.472;2022-12-13T08:21:40;6.75;;;3.90;;
74448;SDS011;62878;51.026;4.472;2022-12-13T08:24:06;9.90;;;3.83;;
74448;SDS011;62878;51.026;4.472;2022-12-13T08:26:32;5.93;;;3.55;;
74448;SDS011;62878;51.026;4.472;2022-12-13T08:28:58;8.00;;;4.13;;
74448;SDS011;62878;51.026;4.472;2022-12-13T08:31:24;7.60;;;3.88;;
74448;SDS011;62878;51.026;4.472;2022-12-13T08:33:49;7.32;;;4.32;;
74448;SDS011;62878;51.026;4.472;2022-12-13T08:36:15;7.53;;;4.13;;
74448;SDS011;62878;51.026;4.472;2022-12-13T08:38:45;7.93;;;3.97;;
74448;SDS011;62878;51.026;4.472;2022-12-13T08:41:10;7.65;;;3.83;;
74448;SDS011;62878;51.026;4.472;2022-12-13T08:43:36;5.22;;;3.25;;
74448;SDS011;62878;51.026;4.472;2022-12-13T08:46:02;6.43;;;4.03;;
74448;SDS011;62878;51.026;4.472;2022-12-13T08:48:28;6.30;;;4.10;;
74448;SDS011;62878;51.026;4.472;2022-12-13T08:50:53;7.57;;;4.45;;
74448;SDS011;62878;51.026;4.472;2022-12-13T08:53:19;5.25;;;3.22;;
74448;SDS011;62878;51.026;4.472;2022-12-13T08:55:44;7.00;;;3.90;;
74448;SDS011;62878;51.026;4.472;2022-12-13T08:58:09;6.75;;;3.58;;
74448;SDS011;62878;51.026;4.472;2022-12-13T09:00:35;5.07;;;3.65;;
74448;SDS011;62878;51.026;4.472;2022-12-13T09:03:01;8.77;;;5.13;;
74448;SDS011;62878;51.026;4.472;2022-12-13T09:05:28;5.90;;;3.90;;
74448;SDS011;62878;51.026;4.472;2022-12-13T09:07:54;5.93;;;3.72;;
74448;SDS011;62878;51.026;4.472;2022-12-13T09:10:20;8.05;;;3.80;;
74448;SDS011;62878;51.026;4.472;2022-12-13T09:12:46;8.63;;;5.07;;
74448;SDS011;62878;51.026;4.472;2022-12-13T09:15:11;8.68;;;4.40;;
74448;SDS011;62878;51.026;4.472;2022-12-13T09:17:37;8.65;;;4.45;;
74448;SDS011;62878;51.026;4.472;2022-12-13T09:20:02;16.00;;;9.45;;
74448;SDS011;62878;51.026;4.472;2022-12-13T09:22:29;18.70;;;9.55;;
74448;SDS011;62878;51.026;4.472;2022-12-13T09:24:54;17.05;;;8.80;;
74448;SDS011;62878;51.026;4.472;2022-12-13T09:27:20;15.45;;;8.48;;
74448;SDS011;62878;51.026;4.472;2022-12-13T09:29:45;17.08;;;8.73;;
74448;SDS011;62878;51.026;4.472;2022-12-13T09:32:11;15.55;;;9.35;;
74448;SDS011;62878;51.026;4.472;2022-12-13T09:34:36;15.40;;;8.00;;
74448;SDS011;62878;51.026;4.472;2022-12-13T09:37:01;12.95;;;7.13;;
74448;SDS011;62878;51.026;4.472;2022-12-13T09:39:27;13.18;;;6.85;;
74448;SDS011;62878;51.026;4.472;2022-12-13T09:41:53;16.27;;;6.50;;
74448;SDS011;62878;51.026;4.472;2022-12-13T09:46:51;17.48;;;9.32;;
74448;SDS011;62878;51.026;4.472;2022-12-13T09:51:48;14.18;;;8.23;;
74448;SDS011;62878;51.026;4.472;2022-12-13T09:54:18;14.43;;;8.10;;
74448;SDS011;62878;51.026;4.472;2022-12-13T09:56:46;14.18;;;7.80;;
74448;SDS011;62878;51.026;4.472;2022-12-13T09:59:14;13.75;;;7.63;;
74448;SDS011;62878;51.026;4.472;2022-12-13T10:01:41;15.63;;;8.13;;
74448;SDS011;62878;51.026;4.472;2022-12-13T10:04:08;13.07;;;7.43;;
74448;SDS011;62878;51.026;4.472;2022-12-13T10:06:36;12.95;;;7.35;;
74448;SDS011;62878;51.026;4.472;2022-12-13T10:09:02;11.43;;;6.60;;
74448;SDS011;62878;51.026;4.472;2022-12-13T10:11:32;9.88;;;5.68;;
74448;SDS011;62878;51.026;4.472;2022-12-13T10:18:54;9.75;;;5.60;;
74448;SDS011;62878;51.026;4.472;2022-12-13T10:23:51;9.07;;;5.40;;
74448;SDS011;62878;51.026;4.472;2022-12-13T10:26:16;14.68;;;5.80;;
74448;SDS011;62878;51.026;4.472;2022-12-13T10:28:42;11.75;;;6.30;;
74448;SDS011;62878;51.026;4.472;2022-12-13T10:31:08;11.77;;;5.65;;
74448;SDS011;62878;51.026;4.472;2022-12-13T10:33:41;9.50;;;5.32;;
74448;SDS011;62878;51.026;4.472;2022-12-13T10:36:35;5.95;;;3.70;;
74448;SDS011;62878;51.026;4.472;2022-12-13T10:39:03;7.82;;;4.93;;
74448;SDS011;62878;51.026;4.472;2022-12-13T10:41:30;10.20;;;4.88;;
74448;SDS011;62878;51.026;4.472;2022-12-13T10:49:18;12.48;;;6.75;;
74448;SDS011;62878;51.026;4.472;2022-12-13T10:51:47;11.13;;;5.03;;
74448;SDS011;62878;51.026;4.472;2022-12-13T10:54:35;9.50;;;5.22;;
74448;SDS011;62878;51.026;4.472;2022-12-13T10:57:01;9.27;;;5.35;;
74448;SDS011;62878;51.026;4.472;2022-12-13T10:59:31;7.50;;;4.43;;
74448;SDS011;62878;51.026;4.472;2022-12-13T11:01:59;10.18;;;5.38;;
74448;SDS011;62878;51.026;4.472;2022-12-13T11:07:44;7.50;;;4.40;;
74448;SDS011;62878;51.026;4.472;2022-12-13T11:09:49;9.27;;;5.07;;
74448;SDS011;62878;51.026;4.472;2022-12-13T11:12:16;7.88;;;4.60;;
74448;SDS011;62878;51.026;4.472;2022-12-13T11:14:58;7.40;;;4.07;;
74448;SDS011;62878;51.026;4.472;2022-12-13T11:17:27;9.38;;;4.88;;
74448;SDS011;62878;51.026;4.472;2022-12-13T11:20:05;7.97;;;4.18;;
74448;SDS011;62878;51.026;4.472;2022-12-13T11:22:39;6.43;;;3.72;;
74448;SDS011;62878;51.026;4.472;2022-12-13T11:25:07;8.98;;;4.30;;
74448;SDS011;62878;51.026;4.472;2022-12-13T11:30:23;9.10;;;4.78;;
74448;SDS011;62878;51.026;4.472;2022-12-13T11:41:57;7.88;;;3.47;;
74448;SDS011;62878;51.026;4.472;2022-12-13T11:47:25;9.93;;;4.20;;
74448;SDS011;62878;51.026;4.472;2022-12-13T11:49:57;8.15;;;3.90;;
74448;SDS011;62878;51.026;4.472;2022-12-13T11:52:27;7.03;;;3.63;;
74448;SDS011;62878;51.026;4.472;2022-12-13T11:55:00;9.80;;;4.43;;
74448;SDS011;62878;51.026;4.472;2022-12-13T12:00:21;8.65;;;3.97;;
74448;SDS011;62878;51.026;4.472;2022-12-13T12:03:04;8.52;;;4.10;;
74448;SDS011;62878;51.026;4.472;2022-12-13T12:05:32;6.53;;;3.75;;
74448;SDS011;62878;51.026;4.472;2022-12-13T12:13:48;6.88;;;3.78;;
74448;SDS011;62878;51.026;4.472;2022-12-13T12:18:51;8.07;;;3.80;;
74448;SDS011;62878;51.026;4.472;2022-12-13T12:26:27;7.18;;;4.20;;
74448;SDS011;62878;51.026;4.472;2022-12-13T12:31:31;7.63;;;3.45;;
74448;SDS011;62878;51.026;4.472;2022-12-13T12:36:46;7.35;;;3.55;;
74448;SDS011;62878;51.026;4.472;2022-12-13T12:47:23;9.98;;;4.00;;
74448;SDS011;62878;51.026;4.472;2022-12-13T12:53:02;8.88;;;3.38;;
74448;SDS011;62878;51.026;4.472;2022-12-13T12:55:44;6.18;;;3.63;;
74448;SDS011;62878;51.026;4.472;2022-12-13T12:58:18;7.90;;;4.07;;
74448;SDS011;62878;51.026;4.472;2022-12-13T13:03:37;7.28;;;4.07;;
74448;SDS011;62878;51.026;4.472;2022-12-13T13:06:11;6.18;;;3.50;;
74448;SDS011;62878;51.026;4.472;2022-12-13T13:08:46;6.72;;;3.42;;
74448;SDS011;62878;51.026;4.472;2022-12-13T13:11:15;9.20;;;4.15;;
74448;SDS011;62878;51.026;4.472;2022-12-13T13:16:27;8.23;;;4.00;;
74448;SDS011;62878;51.026;4.472;2022-12-13T13:18:56;7.50;;;3.08;;
74448;SDS011;62878;51.026;4.472;2022-12-13T13:24:21;5.40;;;3.42;;
74448;SDS011;62878;51.026;4.472;2022-12-13T13:43:00;5.88;;;3.30;;
74448;SDS011;62878;51.026;4.472;2022-12-13T13:45:26;6.78;;;3.13;;
74448;SDS011;62878;51.026;4.472;2022-12-13T13:48:03;5.15;;;2.50;;
74448;SDS011;62878;51.026;4.472;2022-12-13T13:55:59;6.90;;;3.10;;
74448;SDS011;62878;51.026;4.472;2022-12-13T14:24:11;6.63;;;3.28;;
74448;SDS011;62878;51.026;4.472;2022-12-13T14:27:00;18.95;;;4.18;;
74448;SDS011;62878;51.026;4.472;2022-12-13T14:29:35;8.38;;;4.03;;
74448;SDS011;62878;51.026;4.472;2022-12-13T14:32:17;8.57;;;4.65;;
74448;SDS011;62878;51.026;4.472;2022-12-13T14:34:45;8.48;;;4.43;;
74448;SDS011;62878;51.026;4.472;2022-12-13T14:37:21;7.70;;;4.07;;
74448;SDS011;62878;51.026;4.472;2022-12-13T14:39:53;9.77;;;5.18;;
74448;SDS011;62878;51.026;4.472;2022-12-13T14:42:23;11.48;;;4.95;;
74448;SDS011;62878;51.026;4.472;2022-12-13T14:44:50;9.38;;;4.72;;
74448;SDS011;62878;51.026;4.472;2022-12-13T14:47:16;6.68;;;4.20;;
74448;SDS011;62878;51.026;4.472;2022-12-13T14:49:43;9.15;;;5.43;;
74448;SDS011;62878;51.026;4.472;2022-12-13T14:52:28;11.52;;;5.78;;
74448;SDS011;62878;51.026;4.472;2022-12-13T14:55:00;8.52;;;5.03;;
74448;SDS011;62878;51.026;4.472;2022-12-13T14:57:31;11.10;;;4.97;;
74448;SDS011;62878;51.026;4.472;2022-12-13T14:59:58;10.98;;;5.28;;
74448;SDS011;62878;51.026;4.472;2022-12-13T15:02:29;9.75;;;4.97;;
74448;SDS011;62878;51.026;4.472;2022-12-13T15:04:57;9.63;;;5.10;;
74448;SDS011;62878;51.026;4.472;2022-12-13T15:07:31;10.27;;;4.47;;
74448;SDS011;62878;51.026;4.472;2022-12-13T15:10:03;8.90;;;4.80;;
74448;SDS011;62878;51.026;4.472;2022-12-13T15:12:42;10.60;;;5.15;;
74448;SDS011;62878;51.026;4.472;2022-12-13T15:15:16;9.40;;;5.07;;
74448;SDS011;62878;51.026;4.472;2022-12-13T15:17:46;9.27;;;5.47;;
74448;SDS011;62878;51.026;4.472;2022-12-13T15:22:54;10.13;;;4.82;;
74448;SDS011;62878;51.026;4.472;2022-12-13T15:25:26;11.07;;;5.97;;
74448;SDS011;62878;51.026;4.472;2022-12-13T15:27:52;10.70;;;5.32;;
74448;SDS011;62878;51.026;4.472;2022-12-13T15:30:19;14.00;;;5.82;;
74448;SDS011;62878;51.026;4.472;2022-12-13T15:35:30;10.35;;;5.80;;
74448;SDS011;62878;51.026;4.472;2022-12-13T15:37:56;11.02;;;5.22;;
74448;SDS011;62878;51.026;4.472;2022-12-13T15:40:22;13.30;;;6.53;;
74448;SDS011;62878;51.026;4.472;2022-12-13T15:42:47;13.40;;;6.45;;
74448;SDS011;62878;51.026;4.472;2022-12-13T15:45:24;9.68;;;5.07;;
74448;SDS011;62878;51.026;4.472;2022-12-13T15:47:51;11.80;;;5.82;;
74448;SDS011;62878;51.026;4.472;2022-12-13T15:50:31;8.07;;;4.90;;
74448;SDS011;62878;51.026;4.472;2022-12-13T15:53:04;9.32;;;5.03;;
74448;SDS011;62878;51.026;4.472;2022-12-13T15:55:41;10.23;;;6.05;;
74448;SDS011;62878;51.026;4.472;2022-12-13T15:58:21;9.75;;;4.78;;
74448;SDS011;62878;51.026;4.472;2022-12-13T16:00:48;11.13;;;5.72;;
74448;SDS011;62878;51.026;4.472;2022-12-13T16:03:14;8.05;;;4.53;;
74448;SDS011;62878;51.026;4.472;2022-12-13T16:05:46;11.32;;;5.30;;
74448;SDS011;62878;51.026;4.472;2022-12-13T16:08:36;11.15;;;5.90;;
74448;SDS011;62878;51.026;4.472;2022-12-13T16:11:02;9.45;;;5.75;;
74448;SDS011;62878;51.026;4.472;2022-12-13T16:13:32;10.05;;;4.75;;
74448;SDS011;62878;51.026;4.472;2022-12-13T16:16:18;6.75;;;3.78;;
74448;SDS011;62878;51.026;4.472;2022-12-13T16:18:45;8.68;;;5.00;;
74448;SDS011;62878;51.026;4.472;2022-12-13T16:21:16;9.73;;;5.30;;
74448;SDS011;62878;51.026;4.472;2022-12-13T16:23:41;11.15;;;5.78;;
74448;SDS011;62878;51.026;4.472;2022-12-13T16:26:09;11.90;;;5.45;;
74448;SDS011;62878;51.026;4.472;2022-12-13T16:28:37;8.10;;;4.45;;
74448;SDS011;62878;51.026;4.472;2022-12-13T16:31:21;10.57;;;5.32;;
74448;SDS011;62878;51.026;4.472;2022-12-13T16:33:47;9.35;;;5.22;;
74448;SDS011;62878;51.026;4.472;2022-12-13T16:36:13;8.68;;;4.82;;
74448;SDS011;62878;51.026;4.472;2022-12-13T16:38:39;9.93;;;5.13;;
74448;SDS011;62878;51.026;4.472;2022-12-13T16:41:05;9.07;;;4.70;;
74448;SDS011;62878;51.026;4.472;2022-12-13T16:43:31;10.23;;;5.50;;
74448;SDS011;62878;51.026;4.472;2022-12-13T16:45:59;10.15;;;5.30;;
74448;SDS011;62878;51.026;4.472;2022-12-13T16:48:27;10.73;;;5.10;;
74448;SDS011;62878;51.026;4.472;2022-12-13T16:50:53;8.98;;;4.68;;
74448;SDS011;62878;51.026;4.472;2022-12-13T16:53:18;12.30;;;6.00;;
74448;SDS011;62878;51.026;4.472;2022-12-13T16:55:43;10.18;;;5.47;;
74448;SDS011;62878;51.026;4.472;2022-12-13T16:58:13;12.15;;;5.88;;
74448;SDS011;62878;51.026;4.472;2022-12-13T17:00:40;8.55;;;5.65;;
74448;SDS011;62878;51.026;4.472;2022-12-13T17:03:08;13.27;;;5.70;;
74448;SDS011;62878;51.026;4.472;2022-12-13T17:05:34;10.38;;;5.05;;
74448;SDS011;62878;51.026;4.472;2022-12-13T17:08:01;8.73;;;4.95;;
74448;SDS011;62878;51.026;4.472;2022-12-13T17:10:27;8.50;;;5.15;;
74448;SDS011;62878;51.026;4.472;2022-12-13T17:12:53;10.52;;;4.90;;
74448;SDS011;62878;51.026;4.472;2022-12-13T17:15:18;9.32;;;5.25;;
74448;SDS011;62878;51.026;4.472;2022-12-13T17:17:44;10.80;;;5.50;;
74448;SDS011;62878;51.026;4.472;2022-12-13T17:20:12;9.90;;;4.93;;
74448;SDS011;62878;51.026;4.472;2022-12-13T17:22:39;9.07;;;4.80;;